Time;durP1;ratioP1;P1;durP2;ratioP2;P2;SDS_P1;SDS_P2;PMS_P1;PMS_P2;Temp;Humidity;BMP_temperature;BMP_pressure;BME280_temperature;BME280_humidity;BME280_pressure;Samples;Min_cycle;Max_cycle;Signal;HPM_P1;HPM_P2
2021/05/26 00:01:30;;;;;;;1.20;0.97;;;10.90;99.90;;;;;;4987046;28;20459;-52
2021/05/26 00:03:56;;;;;;;2.40;0.80;;;10.80;99.90;;;;;;4987137;28;20475;-50
2021/05/26 00:06:23;;;;;;;1.20;1.00;;;10.80;99.90;;;;;;4983889;28;20451;-51
2021/05/26 00:08:50;;;;;;;2.20;1.33;;;10.80;99.90;;;;;;4983607;28;20914;-51
2021/05/26 00:11:18;;;;;;;1.60;1.00;;;10.80;99.90;;;;;;4984440;28;20450;-51
2021/05/26 00:13:46;;;;;;;1.60;1.30;;;10.70;99.90;;;;;;4983054;28;20532;-50
2021/05/26 00:16:13;;;;;;;1.70;0.90;;;10.70;99.90;;;;;;4983332;28;20631;-49
2021/05/26 00:18:39;;;;;;;2.27;1.17;;;10.70;99.90;;;;;;4984648;28;20500;-51
2021/05/26 00:21:08;;;;;;;1.27;0.90;;;10.70;99.90;;;;;;4985617;28;20455;-50
2021/05/26 00:23:35;;;;;;;1.73;0.90;;;10.70;99.90;;;;;;4985365;28;20971;-52
2021/05/26 00:26:02;;;;;;;1.20;0.87;;;10.60;99.90;;;;;;4984929;28;20440;-47
2021/05/26 00:28:28;;;;;;;1.57;1.03;;;10.60;99.90;;;;;;4983880;28;20443;-55
2021/05/26 00:30:56;;;;;;;1.10;0.80;;;10.60;99.90;;;;;;4985046;28;20449;-52
2021/05/26 00:33:23;;;;;;;1.90;1.30;;;10.60;99.90;;;;;;4985054;28;20443;-49
2021/05/26 00:35:49;;;;;;;1.23;0.93;;;10.60;99.90;;;;;;4983231;28;20490;-49
2021/05/26 00:38:16;;;;;;;2.57;1.37;;;10.60;99.90;;;;;;4984593;28;20932;-53
2021/05/26 00:40:44;;;;;;;1.60;0.90;;;10.60;99.90;;;;;;4984658;28;20446;-55
2021/05/26 00:43:11;;;;;;;2.50;1.00;;;10.60;99.90;;;;;;4985334;28;20913;-53
2021/05/26 00:45:38;;;;;;;1.53;0.90;;;10.60;99.90;;;;;;4984272;28;20447;-53
2021/05/26 00:48:05;;;;;;;1.37;1.10;;;10.60;99.90;;;;;;4983152;28;20462;-51
2021/05/26 00:50:34;;;;;;;3.33;0.97;;;10.60;99.90;;;;;;4980851;28;20501;-49
2021/05/26 00:53:00;;;;;;;2.50;1.10;;;10.60;99.90;;;;;;4984150;28;20439;-48
2021/05/26 00:55:27;;;;;;;1.30;1.00;;;10.60;99.90;;;;;;4985586;28;20465;-54
2021/05/26 00:57:54;;;;;;;1.73;1.20;;;10.60;99.90;;;;;;4983642;28;20443;-51
2021/05/26 01:00:23;;;;;;;4.03;1.20;;;10.60;99.90;;;;;;4985624;28;20920;-52
2021/05/26 01:02:50;;;;;;;2.90;1.30;;;10.60;99.90;;;;;;4986721;28;20459;-49
2021/05/26 01:05:18;;;;;;;1.70;1.10;;;10.60;99.90;;;;;;4988533;28;20536;-48
2021/05/26 01:07:44;;;;;;;1.50;1.00;;;10.70;99.90;;;;;;4989315;28;20453;-45
2021/05/26 01:10:13;;;;;;;1.33;1.03;;;10.70;99.90;;;;;;4986700;28;20458;-52
2021/05/26 01:12:39;;;;;;;1.27;0.80;;;10.70;99.90;;;;;;4988078;28;20438;-51
2021/05/26 01:15:08;;;;;;;1.30;1.00;;;10.70;99.90;;;;;;4988822;28;20763;-49
2021/05/26 01:17:36;;;;;;;1.50;1.00;;;10.70;99.90;;;;;;4986986;28;20474;-48
2021/05/26 01:20:02;;;;;;;2.20;1.00;;;10.70;99.90;;;;;;4987601;28;20488;-54
2021/05/26 01:22:30;;;;;;;1.40;1.00;;;10.70;99.90;;;;;;4989179;28;20446;-47
2021/05/26 01:24:56;;;;;;;1.47;1.23;;;10.60;99.90;;;;;;4988638;28;20457;-50
2021/05/26 01:27:22;;;;;;;2.60;1.00;;;10.70;99.90;;;;;;4988384;28;20439;-51
2021/05/26 01:29:49;;;;;;;1.20;0.90;;;10.60;99.90;;;;;;4986838;28;20458;-53
2021/05/26 01:32:15;;;;;;;1.50;1.00;;;10.70;99.90;;;;;;4988251;28;20442;-46
2021/05/26 01:34:42;;;;;;;1.63;1.07;;;10.70;99.90;;;;;;4987900;28;20447;-47
2021/05/26 01:37:08;;;;;;;3.43;1.93;;;10.70;99.90;;;;;;4986549;28;20474;-54
2021/05/26 01:39:35;;;;;;;6.10;1.00;;;10.70;99.90;;;;;;4988266;28;20516;-51
2021/05/26 01:42:01;;;;;;;4.03;1.13;;;10.60;99.90;;;;;;4986014;28;20458;-52
2021/05/26 01:44:33;;;;;;;1.70;1.20;;;10.60;99.90;;;;;;4983729;28;20462;-47
2021/05/26 01:46:59;;;;;;;1.83;1.10;;;10.60;99.90;;;;;;4978263;28;20753;-48
2021/05/26 01:49:25;;;;;;;2.50;1.13;;;10.60;99.90;;;;;;4978557;28;20461;-53
2021/05/26 01:51:52;;;;;;;1.97;1.20;;;10.60;99.90;;;;;;4978101;28;20514;-51
2021/05/26 01:54:18;;;;;;;4.07;1.10;;;10.70;99.90;;;;;;4978129;28;20466;-47
2021/05/26 01:56:45;;;;;;;4.60;1.20;;;10.70;99.90;;;;;;4977961;28;20486;-51
2021/05/26 01:59:11;;;;;;;3.63;1.60;;;10.70;99.90;;;;;;4977665;28;20949;-50
2021/05/26 02:01:37;;;;;;;1.37;1.13;;;10.70;99.90;;;;;;4977652;28;20470;-50
2021/05/26 02:04:04;;;;;;;1.27;0.90;;;10.70;99.90;;;;;;4977964;28;20446;-48
2021/05/26 02:06:31;;;;;;;1.37;1.23;;;10.70;99.90;;;;;;4977953;28;20446;-52
2021/05/26 02:08:57;;;;;;;1.50;1.20;;;10.70;99.90;;;;;;4977833;28;20443;-47
2021/05/26 02:14:20;;;;;;;2.57;1.10;;;10.70;99.90;;;;;;4918467;29;20525;-48
2021/05/26 02:16:46;;;;;;;1.53;1.07;;;10.70;99.90;;;;;;4967155;28;20490;-50
2021/05/26 02:19:12;;;;;;;2.57;1.50;;;10.70;99.90;;;;;;4977311;28;20946;-51
2021/05/26 02:21:38;;;;;;;1.77;1.20;;;10.70;99.90;;;;;;4977256;28;20898;-52
2021/05/26 02:24:05;;;;;;;3.17;1.63;;;10.70;99.90;;;;;;4977491;28;20458;-51
2021/05/26 02:26:31;;;;;;;1.03;0.90;;;10.70;99.90;;;;;;4977220;28;20868;-52
2021/05/26 02:28:57;;;;;;;1.80;0.97;;;10.70;99.90;;;;;;4977475;28;20459;-50
2021/05/26 02:31:24;;;;;;;1.70;1.00;;;10.70;99.90;;;;;;4977350;28;20442;-46
2021/05/26 02:33:50;;;;;;;3.03;1.10;;;10.70;99.90;;;;;;4977370;28;20762;-47
2021/05/26 02:36:16;;;;;;;1.73;1.57;;;10.70;99.90;;;;;;4976916;28;20961;-49
2021/05/26 02:38:42;;;;;;;1.50;1.07;;;10.70;99.90;;;;;;4977014;28;20451;-49
2021/05/26 02:41:10;;;;;;;1.40;1.17;;;10.70;99.90;;;;;;4977541;28;20509;-48
2021/05/26 02:43:36;;;;;;;2.73;1.40;;;10.70;99.90;;;;;;4977206;28;20446;-52
2021/05/26 02:46:02;;;;;;;1.83;1.47;;;10.70;99.90;;;;;;4977106;28;20466;-52
2021/05/26 02:48:29;;;;;;;1.97;1.40;;;10.70;99.90;;;;;;4977132;28;20758;-50
2021/05/26 02:50:55;;;;;;;2.60;1.33;;;10.70;99.90;;;;;;4977080;28;20447;-49
2021/05/26 02:53:21;;;;;;;2.17;1.70;;;10.70;99.90;;;;;;4976971;28;20513;-51
2021/05/26 02:55:47;;;;;;;1.73;1.57;;;10.70;99.90;;;;;;4976939;28;20525;-52
2021/05/26 02:58:13;;;;;;;3.33;1.47;;;10.70;99.90;;;;;;4976601;28;20961;-54
2021/05/26 03:00:40;;;;;;;3.00;1.60;;;10.80;99.90;;;;;;4976553;28;20534;-47
2021/05/26 03:03:06;;;;;;;3.27;1.37;;;10.80;99.90;;;;;;4976510;28;20960;-47
2021/05/26 03:05:33;;;;;;;1.60;1.50;;;10.80;99.90;;;;;;4976774;28;20451;-48
2021/05/26 03:07:59;;;;;;;7.90;1.63;;;10.80;99.90;;;;;;4977023;28;20466;-53
2021/05/26 03:10:25;;;;;;;3.10;1.43;;;10.80;99.90;;;;;;4976660;28;20454;-48
2021/05/26 03:12:51;;;;;;;3.03;2.77;;;10.80;99.90;;;;;;4976613;28;20443;-50
2021/05/26 03:15:18;;;;;;;7.60;1.77;;;10.80;99.90;;;;;;4976442;28;20510;-51
2021/05/26 03:17:45;;;;;;;2.33;1.53;;;10.70;99.90;;;;;;4976364;28;20482;-52
2021/05/26 03:20:14;;;;;;;1.67;1.57;;;10.70;99.90;;;;;;4976319;28;20462;-49
2021/05/26 03:22:42;;;;;;;2.27;1.43;;;10.70;99.90;;;;;;4976574;28;20770;-52
2021/05/26 03:25:11;;;;;;;2.47;1.43;;;10.80;99.90;;;;;;4976050;28;20470;-49
2021/05/26 03:27:39;;;;;;;4.00;1.83;;;10.80;99.90;;;;;;4976415;28;20463;-49
2021/05/26 03:30:07;;;;;;;2.07;1.80;;;10.80;99.90;;;;;;4976521;28;20829;-48
2021/05/26 03:32:34;;;;;;;8.07;1.77;;;10.80;99.90;;;;;;4978802;28;20447;-48
2021/05/26 03:35:00;;;;;;;1.60;1.10;;;10.80;99.90;;;;;;4976238;28;20522;-50
2021/05/26 03:37:26;;;;;;;3.13;1.20;;;10.80;99.90;;;;;;4975550;28;20478;-50
2021/05/26 03:39:53;;;;;;;2.50;2.30;;;10.80;99.90;;;;;;4975320;28;20457;-49
2021/05/26 03:42:19;;;;;;;3.70;1.60;;;10.80;99.90;;;;;;4975866;28;20451;-49
2021/05/26 03:44:45;;;;;;;1.57;1.30;;;10.80;99.90;;;;;;4976099;28;20466;-50
2021/05/26 03:47:11;;;;;;;6.00;1.77;;;10.80;99.90;;;;;;4976115;28;20458;-53
2021/05/26 03:49:38;;;;;;;2.97;1.67;;;10.80;99.90;;;;;;4976033;28;20451;-48
2021/05/26 03:52:04;;;;;;;2.87;1.70;;;10.90;99.90;;;;;;4975853;28;20467;-50
2021/05/26 03:54:30;;;;;;;3.80;2.17;;;10.90;99.90;;;;;;4976003;28;20806;-49
2021/05/26 03:56:57;;;;;;;1.70;1.27;;;11.00;99.90;;;;;;4975849;28;20560;-47
2021/05/26 03:59:24;;;;;;;5.37;1.77;;;11.00;99.90;;;;;;4975976;28;20467;-48
2021/05/26 04:01:50;;;;;;;2.53;2.07;;;11.00;99.90;;;;;;4975809;28;21020;-54
2021/05/26 04:04:16;;;;;;;1.93;1.20;;;11.10;99.90;;;;;;4975796;28;20427;-48
2021/05/26 04:06:42;;;;;;;2.90;1.90;;;11.10;99.90;;;;;;4975736;28;20442;-47
2021/05/26 04:09:08;;;;;;;3.93;1.93;;;11.20;99.90;;;;;;4975731;28;20469;-52
2021/05/26 04:11:34;;;;;;;4.83;2.10;;;11.20;99.90;;;;;;4975699;28;20451;-51
2021/05/26 04:14:01;;;;;;;3.00;1.63;;;11.20;99.90;;;;;;4975579;28;20450;-54
2021/05/26 04:16:27;;;;;;;1.90;1.60;;;11.20;99.90;;;;;;4975881;28;20490;-50
2021/05/26 04:18:53;;;;;;;2.70;1.67;;;11.30;99.90;;;;;;4975583;28;20489;-49
2021/05/26 04:21:20;;;;;;;2.50;2.10;;;11.30;99.90;;;;;;4975561;28;20968;-53
2021/05/26 04:23:46;;;;;;;3.00;1.97;;;11.40;99.90;;;;;;4975542;28;20450;-50
2021/05/26 04:26:12;;;;;;;2.50;1.90;;;11.40;99.90;;;;;;4975272;28;20455;-51
2021/05/26 04:28:42;;;;;;;2.87;2.03;;;11.40;99.90;;;;;;4975456;28;20450;-50
2021/05/26 04:31:10;;;;;;;2.80;2.10;;;11.30;99.90;;;;;;4975372;28;20869;-53
2021/05/26 04:33:36;;;;;;;4.37;2.23;;;11.40;99.90;;;;;;4975346;28;20447;-50
2021/05/26 04:36:02;;;;;;;4.47;2.00;;;11.40;99.90;;;;;;4974384;28;20463;-49
2021/05/26 04:38:28;;;;;;;3.67;3.10;;;11.40;99.90;;;;;;4975336;28;20520;-46
2021/05/26 04:40:55;;;;;;;3.13;2.00;;;11.40;99.90;;;;;;4975330;28;20465;-48
2021/05/26 04:43:21;;;;;;;3.07;1.90;;;11.50;99.90;;;;;;4975277;28;20521;-46
2021/05/26 04:45:47;;;;;;;6.17;2.30;;;11.50;99.90;;;;;;4975593;28;20846;-53
2021/05/26 04:48:14;;;;;;;6.37;2.60;;;11.40;99.90;;;;;;4975739;28;20462;-48
2021/05/26 04:50:40;;;;;;;3.97;2.30;;;11.50;99.90;;;;;;4975487;28;20458;-55
2021/05/26 04:53:07;;;;;;;3.40;2.70;;;11.40;99.90;;;;;;4975437;28;20458;-51
2021/05/26 04:55:33;;;;;;;3.57;2.37;;;11.40;99.90;;;;;;4975137;28;20450;-48
2021/05/26 04:57:59;;;;;;;5.20;2.40;;;11.50;99.90;;;;;;4975019;28;20486;-48
2021/05/26 05:00:26;;;;;;;5.87;2.60;;;11.50;99.90;;;;;;4975089;28;20469;-50
2021/05/26 05:02:53;;;;;;;2.23;2.03;;;11.50;99.90;;;;;;4974978;28;20469;-54
2021/05/26 05:05:20;;;;;;;2.00;1.80;;;11.60;99.90;;;;;;4977026;28;20466;-52
2021/05/26 05:07:47;;;;;;;2.90;2.20;;;11.60;99.90;;;;;;4975969;28;20765;-49
2021/05/26 05:10:13;;;;;;;5.13;2.20;;;11.60;99.90;;;;;;4974978;28;20826;-51
2021/05/26 05:12:40;;;;;;;3.90;2.10;;;11.70;99.90;;;;;;4974922;28;20517;-47
2021/05/26 05:15:07;;;;;;;2.60;2.13;;;11.80;99.90;;;;;;4974005;28;20467;-48
2021/05/26 05:17:33;;;;;;;4.70;2.40;;;11.80;99.90;;;;;;4974835;28;20497;-54
2021/05/26 05:19:59;;;;;;;4.30;2.43;;;11.80;99.90;;;;;;4974931;28;20447;-53
2021/05/26 05:22:26;;;;;;;3.73;2.50;;;11.90;99.90;;;;;;4974766;28;20461;-51
2021/05/26 05:24:52;;;;;;;2.43;1.97;;;11.90;99.90;;;;;;4974796;28;20526;-51
2021/05/26 05:27:18;;;;;;;4.03;2.03;;;12.00;99.90;;;;;;4974505;28;20458;-49
2021/05/26 05:29:46;;;;;;;4.83;2.50;;;12.00;99.90;;;;;;4974829;28;20446;-49
2021/05/26 05:32:13;;;;;;;3.20;2.10;;;12.10;99.90;;;;;;4974726;28;20852;-53
2021/05/26 05:34:39;;;;;;;7.23;2.50;;;12.20;99.90;;;;;;4982583;28;20439;-51
2021/05/26 05:37:05;;;;;;;3.80;2.57;;;12.30;99.90;;;;;;4993846;28;20495;-50
2021/05/26 05:39:32;;;;;;;6.10;2.00;;;12.30;99.90;;;;;;4993735;28;20450;-51
2021/05/26 05:41:58;;;;;;;2.90;2.13;;;12.40;99.90;;;;;;4994986;28;20524;-51
2021/05/26 05:44:24;;;;;;;3.33;2.00;;;12.40;99.90;;;;;;4996789;28;20453;-52
2021/05/26 05:46:50;;;;;;;4.73;2.20;;;12.50;99.90;;;;;;4996134;28;20446;-51
2021/05/26 05:49:17;;;;;;;3.00;2.33;;;12.70;99.90;;;;;;5000431;28;20512;-46
2021/05/26 05:51:46;;;;;;;2.40;1.90;;;12.80;99.90;;;;;;5000563;28;20450;-49
2021/05/26 05:54:14;;;;;;;4.20;2.30;;;12.90;99.90;;;;;;5001310;28;20781;-47
2021/05/26 05:56:41;;;;;;;3.20;2.10;;;12.90;99.90;;;;;;4999699;28;20808;-49
2021/05/26 05:59:08;;;;;;;2.80;2.00;;;12.90;99.90;;;;;;4990359;28;20779;-51
2021/05/26 06:01:34;;;;;;;4.03;2.00;;;12.90;99.90;;;;;;4981934;28;20446;-50
2021/05/26 06:04:03;;;;;;;4.40;2.67;;;12.80;99.90;;;;;;4981355;28;20466;-48
2021/05/26 06:06:29;;;;;;;3.33;2.20;;;12.80;99.90;;;;;;4981467;28;20794;-50
2021/05/26 06:08:55;;;;;;;6.30;2.13;;;12.70;99.90;;;;;;4980305;28;20450;-47
2021/05/26 06:11:21;;;;;;;3.87;2.20;;;12.80;99.90;;;;;;4981928;28;20461;-46
2021/05/26 06:13:49;;;;;;;3.20;2.23;;;12.80;99.90;;;;;;4982856;28;20929;-48
2021/05/26 06:16:15;;;;;;;2.73;1.77;;;13.00;99.90;;;;;;4980767;28;20588;-47
2021/05/26 06:18:41;;;;;;;3.80;1.90;;;13.00;99.90;;;;;;4980341;28;20443;-47
2021/05/26 06:21:08;;;;;;;4.43;2.20;;;13.00;99.90;;;;;;4993729;28;20462;-46
2021/05/26 06:23:34;;;;;;;3.10;2.47;;;13.00;99.90;;;;;;5001188;28;20465;-49
2021/05/26 06:26:01;;;;;;;5.20;3.53;;;13.00;99.90;;;;;;4998980;28;20442;-47
2021/05/26 06:28:27;;;;;;;4.70;2.57;;;13.00;99.90;;;;;;4996365;28;20458;-52
2021/05/26 06:30:56;;;;;;;3.20;2.50;;;13.10;99.90;;;;;;4999245;28;20932;-50
2021/05/26 06:33:22;;;;;;;3.57;2.20;;;13.10;99.90;;;;;;4999056;28;20955;-48
2021/05/26 06:35:50;;;;;;;4.70;2.60;;;13.30;99.90;;;;;;4996955;28;20450;-46
2021/05/26 06:38:16;;;;;;;2.63;2.00;;;13.40;99.90;;;;;;4997738;28;20478;-44
2021/05/26 06:40:42;;;;;;;6.43;2.80;;;13.50;99.90;;;;;;5000029;28;20511;-47
2021/05/26 06:43:08;;;;;;;3.97;2.27;;;13.60;99.90;;;;;;5000426;28;20442;-43
2021/05/26 06:45:35;;;;;;;2.73;1.80;;;13.80;99.90;;;;;;4999911;28;20581;-45
2021/05/26 06:48:02;;;;;;;3.50;2.50;;;14.00;99.90;;;;;;4997812;28;20442;-47
2021/05/26 06:50:28;;;;;;;1.90;1.70;;;14.10;99.90;;;;;;4994428;28;20773;-45
2021/05/26 06:52:54;;;;;;;2.20;1.90;;;14.30;99.90;;;;;;4998787;28;20450;-47
2021/05/26 06:55:20;;;;;;;3.87;1.70;;;14.40;99.90;;;;;;4998825;28;20462;-44
2021/05/26 06:57:46;;;;;;;3.00;1.97;;;14.50;99.90;;;;;;4997379;28;20540;-44
2021/05/26 07:00:14;;;;;;;3.20;1.97;;;14.60;99.90;;;;;;4997531;28;20876;-45
2021/05/26 07:02:40;;;;;;;2.53;1.93;;;14.60;99.90;;;;;;4996838;28;20501;-45
2021/05/26 07:05:08;;;;;;;2.53;2.17;;;14.50;99.90;;;;;;4998417;28;20450;-43
2021/05/26 07:07:35;;;;;;;3.83;2.10;;;14.40;99.90;;;;;;4997258;28;20445;-43
2021/05/26 07:10:01;;;;;;;5.43;3.63;;;14.40;99.90;;;;;;4996671;28;20477;-44
2021/05/26 07:12:27;;;;;;;2.30;2.10;;;14.40;99.90;;;;;;4996362;28;20512;-45
2021/05/26 07:14:53;;;;;;;3.53;2.20;;;14.40;99.90;;;;;;4996686;28;21277;-43
2021/05/26 07:17:20;;;;;;;3.10;1.60;;;14.50;99.90;;;;;;4996582;28;20496;-46
2021/05/26 07:19:46;;;;;;;4.27;2.40;;;14.60;99.90;;;;;;4997701;28;20446;-43
2021/05/26 07:22:13;;;;;;;6.63;2.63;;;14.70;99.90;;;;;;4996197;28;20449;-44
2021/05/26 07:24:39;;;;;;;3.00;2.17;;;14.60;99.90;;;;;;4996045;28;20453;-45
2021/05/26 07:27:06;;;;;;;3.73;2.60;;;14.50;99.90;;;;;;4995371;28;20801;-44
2021/05/26 07:29:32;;;;;;;4.47;2.30;;;14.40;99.90;;;;;;4995748;28;20469;-45
2021/05/26 07:31:59;;;;;;;2.13;1.80;;;14.40;99.90;;;;;;4995596;28;20446;-46
2021/05/26 07:34:25;;;;;;;2.30;2.03;;;14.60;99.90;;;;;;4995483;28;20457;-44
2021/05/26 07:36:53;;;;;;;9.83;2.40;;;14.50;99.90;;;;;;4994750;28;20489;-44
2021/05/26 07:39:20;;;;;;;9.00;2.50;;;14.30;99.90;;;;;;4996272;28;20449;-47
2021/05/26 07:41:46;;;;;;;7.80;2.30;;;14.20;99.90;;;;;;4995883;28;20446;-48
2021/05/26 07:44:12;;;;;;;5.27;2.17;;;14.20;99.90;;;;;;4995410;28;20446;-49
2021/05/26 07:46:39;;;;;;;6.80;2.83;;;14.30;99.90;;;;;;4994979;28;20446;-45
2021/05/26 07:49:05;;;;;;;2.47;2.07;;;14.40;99.90;;;;;;4998706;28;20461;-44
2021/05/26 07:51:33;;;;;;;3.73;1.60;;;14.40;99.90;;;;;;4991312;28;20454;-44
2021/05/26 07:54:01;;;;;;;3.63;2.10;;;14.40;99.90;;;;;;4995400;28;20457;-45
2021/05/26 07:56:28;;;;;;;5.63;2.87;;;14.40;99.90;;;;;;4994672;28;20477;-44
2021/05/26 07:58:55;;;;;;;3.60;2.47;;;14.80;99.90;;;;;;4995124;28;20757;-44
2021/05/26 08:01:21;;;;;;;6.13;2.30;;;15.70;99.90;;;;;;4996754;28;20472;-44
2021/05/26 08:03:47;;;;;;;8.37;2.23;;;16.30;99.90;;;;;;4995367;28;20925;-44
2021/05/26 08:06:13;;;;;;;6.10;2.20;;;16.60;99.90;;;;;;4995193;28;20839;-45
2021/05/26 08:08:40;;;;;;;7.87;3.70;;;16.60;99.90;;;;;;4995872;28;20445;-45
2021/05/26 08:11:07;;;;;;;8.90;3.00;;;16.50;99.90;;;;;;4996683;28;20841;-46
2021/05/26 08:13:34;;;;;;;5.83;2.83;;;16.40;99.90;;;;;;4995585;28;20450;-44
2021/05/26 08:16:00;;;;;;;3.10;1.40;;;16.10;99.90;;;;;;4994386;28;20501;-46
2021/05/26 08:18:26;;;;;;;4.60;2.03;;;15.90;99.90;;;;;;4995657;28;20493;-47
2021/05/26 08:20:52;;;;;;;3.20;2.00;;;15.70;99.90;;;;;;4995556;28;20477;-44
2021/05/26 08:23:19;;;;;;;2.27;1.87;;;15.50;99.90;;;;;;4996794;28;20446;-45
2021/05/26 08:25:45;;;;;;;3.73;1.93;;;15.50;99.90;;;;;;4995732;28;20912;-56
2021/05/26 08:28:11;;;;;;;5.37;2.20;;;15.40;99.90;;;;;;4992653;28;20481;-44
2021/05/26 08:30:40;;;;;;;8.17;1.80;;;15.30;99.90;;;;;;4998536;28;20454;-46
2021/05/26 08:33:06;;;;;;;4.00;2.10;;;15.10;99.90;;;;;;4995104;28;20951;-44
2021/05/26 08:35:33;;;;;;;3.10;2.00;;;15.00;99.90;;;;;;4994830;28;21015;-44
2021/05/26 08:37:59;;;;;;;4.50;1.53;;;14.90;99.90;;;;;;4995809;28;20568;-47
2021/05/26 08:40:27;;;;;;;2.37;2.13;;;14.80;99.90;;;;;;4996108;28;20929;-47
2021/05/26 08:42:54;;;;;;;3.63;1.70;;;14.80;99.90;;;;;;4991380;28;20787;-45
2021/05/26 08:45:20;;;;;;;4.23;1.60;;;14.80;99.90;;;;;;4995808;28;21298;-48
2021/05/26 08:47:53;;;;;;;3.93;1.60;;;14.70;99.90;;;;;;4992417;28;20445;-42
2021/05/26 08:50:19;;;;;;;4.73;1.60;;;14.70;99.90;;;;;;4994969;28;20431;-45
2021/05/26 08:52:45;;;;;;;4.47;2.03;;;14.70;99.90;;;;;;4995563;28;20465;-47
2021/05/26 08:55:12;;;;;;;4.57;1.73;;;14.60;99.90;;;;;;4994022;28;20454;-49
2021/05/26 08:57:41;;;;;;;4.17;1.80;;;14.60;99.90;;;;;;4992605;28;20511;-46
2021/05/26 09:00:08;;;;;;;2.70;2.20;;;14.60;99.90;;;;;;4993829;28;20943;-50
2021/05/26 09:02:35;;;;;;;7.73;2.60;;;14.80;99.90;;;;;;4996272;28;20458;-47
2021/05/26 09:05:02;;;;;;;4.63;1.73;;;15.00;99.90;;;;;;4994899;28;20446;-59
2021/05/26 09:07:32;;;;;;;4.07;1.77;;;15.80;99.90;;;;;;4990710;28;20473;-50
2021/05/26 09:10:01;;;;;;;1.97;1.63;;;16.50;99.90;;;;;;4989425;28;20450;-47
2021/05/26 09:12:31;;;;;;;3.30;2.00;;;17.00;99.90;;;;;;4994127;28;21033;-49
2021/05/26 09:15:03;;;;;;;3.60;1.90;;;17.50;99.90;;;;;;4992414;28;20449;-47
2021/05/26 09:17:30;;;;;;;3.10;1.50;;;18.50;99.90;;;;;;4990548;28;20836;-47
2021/05/26 09:20:22;;;;;;;4.30;1.80;;;18.60;99.90;;;;;;4992341;28;20446;-48
2021/05/26 09:23:01;;;;;;;1.73;1.50;;;18.40;99.90;;;;;;4985768;28;20451;-45
2021/05/26 09:25:29;;;;;;;3.77;1.40;;;18.10;99.90;;;;;;4995252;28;20504;-47
2021/05/26 09:28:14;;;;;;;2.80;1.73;;;17.70;99.90;;;;;;4995167;28;20437;-44
2021/05/26 09:30:40;;;;;;;4.03;2.40;;;17.10;99.90;;;;;;4995357;28;20437;-45
2021/05/26 09:33:26;;;;;;;2.97;2.27;;;16.80;99.90;;;;;;4998972;28;20915;-46
2021/05/26 09:36:13;;;;;;;4.13;2.20;;;16.50;99.90;;;;;;4993921;28;20430;-46
2021/05/26 09:38:41;;;;;;;2.70;2.00;;;16.20;99.90;;;;;;4995951;28;20422;-48
2021/05/26 09:41:12;;;;;;;3.57;1.80;;;15.90;99.90;;;;;;4992133;28;20456;-46
2021/05/26 09:43:43;;;;;;;3.43;1.77;;;15.60;99.90;;;;;;4997450;28;20545;-44
2021/05/26 09:46:29;;;;;;;3.37;1.53;;;15.50;99.90;;;;;;4995643;28;20434;-45
2021/05/26 09:49:08;;;;;;;4.13;2.13;;;15.50;99.90;;;;;;5000414;28;20853;-47
2021/05/26 09:51:37;;;;;;;4.23;2.57;;;15.40;99.90;;;;;;5002259;28;20663;-47
2021/05/26 09:54:11;;;;;;;9.93;2.13;;;15.50;99.90;;;;;;4999138;28;20438;-48
2021/05/26 09:56:38;;;;;;;3.33;2.20;;;15.70;99.90;;;;;;4992657;28;20480;-44
2021/05/26 09:59:05;;;;;;;3.13;1.90;;;16.10;99.90;;;;;;4995996;28;20461;-46
2021/05/26 10:01:32;;;;;;;5.67;3.10;;;17.30;99.90;;;;;;4996055;28;20476;-48
2021/05/26 10:03:59;;;;;;;6.03;2.70;;;18.50;99.90;;;;;;4996526;28;20438;-46
2021/05/26 10:06:28;;;;;;;4.00;2.10;;;19.10;99.90;;;;;;4997069;28;20434;-49
2021/05/26 10:08:56;;;;;;;3.10;2.10;;;19.10;99.20;;;;;;4997947;28;20472;-47
2021/05/26 10:11:25;;;;;;;3.70;2.10;;;18.90;99.10;;;;;;4993763;28;20460;-46
2021/05/26 10:13:52;;;;;;;3.87;2.10;;;18.60;99.30;;;;;;4993458;28;20526;-51
2021/05/26 10:16:19;;;;;;;3.13;2.60;;;18.30;99.90;;;;;;4995407;28;20488;-48
2021/05/26 10:18:46;;;;;;;6.57;2.10;;;17.90;99.90;;;;;;4995219;28;20450;-45
2021/05/26 10:21:15;;;;;;;5.57;2.00;;;17.80;99.90;;;;;;4995035;28;20478;-49
2021/05/26 10:23:42;;;;;;;2.50;1.90;;;17.60;99.90;;;;;;5003551;28;20502;-49
2021/05/26 10:26:09;;;;;;;7.03;2.43;;;17.50;99.90;;;;;;4979445;28;20455;-44
2021/05/26 10:28:35;;;;;;;5.10;2.40;;;17.30;99.90;;;;;;4976201;28;20450;-47
2021/05/26 10:31:03;;;;;;;2.67;2.20;;;17.00;99.90;;;;;;4977122;28;20557;-44
2021/05/26 10:33:51;;;;;;;4.37;2.10;;;16.70;99.90;;;;;;4974282;28;20525;-44
2021/05/26 10:36:18;;;;;;;5.33;1.80;;;16.30;99.90;;;;;;4971927;28;21221;-47
2021/05/26 10:38:55;;;;;;;2.73;1.93;;;15.90;99.90;;;;;;4975278;28;20467;-47
2021/05/26 10:41:22;;;;;;;3.43;1.93;;;15.50;99.90;;;;;;4976692;28;20483;-47
2021/05/26 10:43:54;;;;;;;3.00;2.10;;;15.30;99.90;;;;;;4978350;28;20459;-49
2021/05/26 10:46:35;;;;;;;3.57;2.20;;;15.10;99.90;;;;;;4965537;28;20526;-44
2021/05/26 10:49:12;;;;;;;3.13;1.87;;;15.00;99.90;;;;;;4972949;28;20489;-49
2021/05/26 10:52:09;;;;;;;3.03;2.83;;;15.00;99.90;;;;;;4976941;28;20454;-49
2021/05/26 10:55:06;;;;;;;5.00;2.43;;;15.60;99.90;;;;;;4977750;28;20447;-48
2021/05/26 10:58:15;;;;;;;5.43;2.90;;;16.10;99.90;;;;;;4975685;28;20953;-44
2021/05/26 11:00:44;;;;;;;4.93;2.20;;;16.50;99.90;;;;;;4973747;28;20525;-46
2021/05/26 11:03:44;;;;;;;2.90;2.03;;;17.00;99.90;;;;;;4977482;28;20865;-43
2021/05/26 11:06:38;;;;;;;4.97;2.80;;;17.50;99.90;;;;;;4975244;28;20443;-45
2021/05/26 11:09:08;;;;;;;3.23;1.87;;;17.40;99.90;;;;;;4976311;28;21061;-44
2021/05/26 11:12:05;;;;;;;4.57;2.90;;;17.20;99.90;;;;;;4976082;28;20446;-45
2021/05/26 11:14:39;;;;;;;2.27;1.73;;;17.00;99.90;;;;;;4976009;28;20442;-43
2021/05/26 11:17:37;;;;;;;2.17;1.70;;;16.80;99.90;;;;;;4973853;28;20481;-44
2021/05/26 11:20:19;;;;;;;1.90;1.50;;;16.80;99.90;;;;;;4977425;28;20475;-44
2021/05/26 11:22:46;;;;;;;4.90;2.03;;;17.30;99.90;;;;;;4976811;28;20453;-46
2021/05/26 11:25:13;;;;;;;5.20;1.80;;;17.90;99.90;;;;;;4976543;28;20462;-46
2021/05/26 11:27:55;;;;;;;2.40;1.77;;;18.40;99.90;;;;;;4972315;28;20443;-44
2021/05/26 11:30:25;;;;;;;4.10;1.80;;;18.50;99.90;;;;;;4973244;28;20583;-45
2021/05/26 11:32:55;;;;;;;6.70;1.50;;;18.30;99.90;;;;;;4970000;28;20448;-47
2021/05/26 11:35:22;;;;;;;3.97;1.47;;;18.20;99.90;;;;;;4975659;28;20975;-47
2021/05/26 11:37:49;;;;;;;1.93;1.40;;;18.20;99.90;;;;;;4974930;28;20487;-47
2021/05/26 11:40:28;;;;;;;1.30;1.13;;;18.40;99.90;;;;;;4975675;28;20457;-48
2021/05/26 11:42:57;;;;;;;2.70;1.20;;;18.50;99.90;;;;;;4975041;28;20459;-46
2021/05/26 11:45:25;;;;;;;1.80;1.20;;;18.50;99.90;;;;;;4974940;28;20489;-45
2021/05/26 11:47:55;;;;;;;1.73;1.33;;;18.40;99.90;;;;;;4971433;28;20494;-43
2021/05/26 11:50:25;;;;;;;1.87;1.23;;;18.20;99.90;;;;;;4974535;28;20456;-46
2021/05/26 11:53:12;;;;;;;1.20;1.07;;;18.10;99.90;;;;;;4974856;28;20455;-46
2021/05/26 11:55:39;;;;;;;6.17;1.43;;;18.10;99.90;;;;;;4974052;28;21061;-45
2021/05/26 11:58:05;;;;;;;4.23;1.57;;;18.10;99.90;;;;;;4969833;28;20494;-47
2021/05/26 12:00:35;;;;;;;5.97;1.93;;;18.10;99.90;;;;;;4973934;28;20447;-43
2021/05/26 12:03:03;;;;;;;1.80;1.27;;;17.80;99.90;;;;;;4969645;28;20476;-44
2021/05/26 12:05:39;;;;;;;1.90;1.43;;;17.60;99.90;;;;;;4974303;28;20486;-46
2021/05/26 12:08:17;;;;;;;1.20;1.00;;;17.70;99.90;;;;;;4972461;28;20438;-45
2021/05/26 12:10:44;;;;;;;2.53;1.23;;;17.90;99.90;;;;;;4968129;28;20449;-46
2021/05/26 12:13:10;;;;;;;3.87;1.40;;;18.00;99.90;;;;;;4973558;28;20454;-46
2021/05/26 12:15:38;;;;;;;1.63;1.13;;;18.00;99.90;;;;;;4972064;28;20475;-46
2021/05/26 12:18:06;;;;;;;1.63;1.50;;;17.90;99.90;;;;;;4971502;28;20846;-48
2021/05/26 12:20:32;;;;;;;2.03;1.07;;;18.00;99.90;;;;;;4974714;28;20440;-50
2021/05/26 12:23:00;;;;;;;1.43;1.00;;;18.00;98.80;;;;;;4974714;28;20450;-46
2021/05/26 12:25:37;;;;;;;1.37;1.27;;;17.80;98.10;;;;;;4975263;28;20451;-47
2021/05/26 12:28:16;;;;;;;1.30;0.90;;;17.60;98.90;;;;;;4969324;28;20450;-44
2021/05/26 12:30:44;;;;;;;3.90;1.30;;;17.50;99.90;;;;;;4971933;28;20454;-47
2021/05/26 12:33:19;;;;;;;2.33;1.47;;;17.50;99.90;;;;;;4974410;28;20447;-44
2021/05/26 12:36:00;;;;;;;2.63;1.43;;;17.50;99.90;;;;;;4970160;28;20450;-44
2021/05/26 12:38:28;;;;;;;1.87;1.00;;;17.50;99.90;;;;;;4970879;28;20479;-47
2021/05/26 12:40:54;;;;;;;4.73;1.33;;;17.80;99.80;;;;;;4974620;28;20447;-49
2021/05/26 12:43:30;;;;;;;2.03;1.20;;;18.00;99.70;;;;;;4974143;28;20451;-47
2021/05/26 12:45:57;;;;;;;3.60;1.90;;;18.10;99.50;;;;;;4973158;28;20461;-47
2021/05/26 12:48:29;;;;;;;3.70;1.57;;;18.20;99.20;;;;;;4973420;28;20442;-48
2021/05/26 12:51:01;;;;;;;2.33;1.53;;;18.30;98.80;;;;;;4973973;28;20454;-45
2021/05/26 12:53:32;;;;;;;1.97;1.40;;;18.20;99.50;;;;;;4973880;28;20549;-46
2021/05/26 12:55:59;;;;;;;2.07;1.20;;;18.20;98.40;;;;;;4969787;28;20494;-45
2021/05/26 12:58:25;;;;;;;1.90;1.20;;;18.20;98.40;;;;;;4971924;28;20489;-46